Schedule Details

Flight Number: CPX826
Departure: Travis Air Force Base (KSUU) at N/A
Arrival: Daniel K Inouye International Airport (PHNL) at N/A
Route: BESSA PYE BEBOP R464 BITTA


Current Weather Information
KSUU 152122Z AUTO 25015G20KT 10SM FEW029 SCT038 09/05 A2998 RMK AO2 RAB06E22 SLP159 $
PHNL 152053Z 03008G19KT 10SM FEW025 SCT040 BKN055 24/15 A3001 RMK AO2 RAB38E45 SLP161 P0000 60000 T02390150 50005

Route Map